Terminal Aerodrome Forecast
Issued by NWS St Louis, MO

Home | Current Version | Previous Version | Graphics & Text | Print | Product List | Glossary On
Versions: 1 2 3 4 5 6 7 8 9 10 11 12 13 14 15 16
623
FTUS43 KLSX 131725
TAFCOU
TAF
KCOU 131725Z 1318/1418 08007KT P6SM OVC080
     FM140100 11012KT P6SM OVC060
     FM141000 13012KT 4SM -SN SCT015 OVC035
     FM141200 16012KT 2SM -SN SCT009 OVC015=

USA.gov is the U.S. government's official web portal to all federal, state and local government web resources and services.